.
WxDataArchive / Data Records for 2008-08-30
2008-08-29 August 2008 2008-08-31

Data Records for Saturday, 30 August 2008

Time	Temp	Chill	HIndex	Humid	Dewpt	 Wind 	HiWind	WindDir	Rain 	Barom 
-----	----	-----	------	-----	-----	------	------	-------	-----	----- 
00:00	59.5	59.5	59.5	81	53.7	0	0	---	0.00	29.943 
00:05	59.3	59.3	59.3	82	53.8	0	0	---	0.00	29.943 
00:10	59.0	59.0	59.0	83	53.8	0	0	---	0.00	29.943 
00:15	58.9	58.9	58.9	84	54.1	0	0	---	0.00	29.944 
00:20	58.7	58.7	58.7	85	54.2	0	0	---	0.00	29.944 
00:25	58.4	58.4	58.4	86	54.2	0	0	---	0.00	29.944 
00:30	58.3	58.3	58.3	86	54.1	0	0	---	0.00	29.943 
00:35	58.1	58.1	58.1	86	53.9	0	0	---	0.00	29.943 
00:40	58.0	58.0	58.0	86	53.8	0	0	---	0.00	29.943 
00:45	57.6	57.6	57.6	87	53.8	0	0	---	0.00	29.944 
00:50	57.5	57.5	57.5	88	54.0	0	0	---	0.00	29.944 
00:55	57.3	57.3	57.3	88	53.8	0	0	---	0.00	29.944 
01:00	57.2	57.2	57.2	88	53.7	0	0	---	0.00	29.943 
01:05	57.0	57.0	57.0	88	53.5	0	0	---	0.00	29.943 
01:10	57.0	57.0	57.0	89	53.8	0	0	---	0.00	29.943 
01:15	56.9	56.9	56.9	89	53.7	0	0	---	0.00	29.949 
01:20	56.9	56.9	56.9	90	54.0	0	0	---	0.00	29.949 
01:25	57.5	57.5	57.5	91	54.9	0	0	---	0.00	29.949 
01:30	58.1	58.1	58.1	91	55.5	0	0	---	0.00	29.951 
01:35	58.7	58.7	58.7	91	56.1	0	0	---	0.00	29.951 
01:40	59.2	59.2	59.2	89	56.0	0	0	---	0.00	29.951 
01:45	59.5	59.5	59.5	88	55.9	0	0	---	0.00	29.947 
01:50	59.6	59.6	59.6	88	56.0	0	0	---	0.00	29.947 
01:55	59.9	59.9	59.9	87	56.0	0	0	---	0.00	29.947 
02:00	60.2	60.2	60.2	86	56.0	0	1	270	0.00	29.947 
02:05	60.5	60.5	60.5	86	56.3	0	0	---	0.00	29.947 
02:10	60.7	60.7	60.7	85	56.2	0	1	270	0.00	29.947 
02:15	60.7	60.7	60.7	85	56.2	0	0	---	0.00	29.949 
02:20	60.7	60.7	60.7	85	56.2	0	0	---	0.00	29.949 
02:25	60.7	60.7	60.7	85	56.2	0	0	---	0.00	29.949 
02:30	60.5	60.5	60.5	85	56.0	0	0	---	0.00	29.953 
02:35	60.4	60.4	60.4	85	55.9	0	0	---	0.00	29.953 
02:40	60.2	60.2	60.2	85	55.7	0	0	---	0.00	29.953 
02:45	59.9	59.9	59.9	85	55.4	0	0	---	0.00	29.962 
02:50	59.8	59.8	59.8	86	55.6	0	0	---	0.00	29.962 
02:55	59.5	59.5	59.5	86	55.3	0	0	---	0.00	29.962 
03:00	59.3	59.3	59.3	87	55.4	0	0	---	0.00	29.965 
03:05	59.2	59.2	59.2	87	55.3	0	0	---	0.00	29.965 
03:10	58.9	58.9	58.9	87	55.0	0	0	---	0.00	29.965 
03:15	58.7	58.7	58.7	88	55.2	0	0	---	0.00	29.968 
03:20	58.7	58.7	58.7	88	55.2	0	0	---	0.00	29.968 
03:25	58.6	58.6	58.6	88	55.1	0	0	---	0.00	29.968 
03:30	58.7	58.7	58.7	89	55.5	0	0	---	0.00	29.975 
03:35	58.7	58.7	58.7	89	55.5	0	0	---	0.00	29.975 
03:40	58.6	58.6	58.6	89	55.4	0	0	---	0.00	29.975 
03:45	58.4	58.4	58.4	89	55.2	0	0	---	0.00	29.980 
03:50	58.3	58.3	58.3	89	55.1	0	0	---	0.00	29.980 
03:55	58.1	58.1	58.1	89	54.9	0	0	---	0.00	29.980 
04:00	58.0	58.0	58.0	89	54.8	0	0	---	0.00	29.984 
04:05	57.8	57.8	57.8	89	54.6	0	0	---	0.00	29.984 
04:10	57.6	57.6	57.6	89	54.4	0	0	---	0.00	29.984 
04:15	57.5	57.5	57.5	90	54.6	0	0	---	0.00	29.989 
04:20	57.2	57.2	57.2	90	54.3	0	0	---	0.00	29.989 
04:25	57.0	57.0	57.0	90	54.1	0	0	---	0.00	29.989 
04:30	56.9	56.9	56.9	90	54.0	0	0	---	0.00	29.993 
04:35	56.7	56.7	56.7	91	54.1	0	0	---	0.00	29.993 
04:40	56.6	56.6	56.6	91	54.0	0	0	---	0.00	29.993 
04:45	56.6	56.6	56.6	91	54.0	0	0	---	0.00	29.991 
04:50	56.6	56.6	56.6	92	54.3	0	0	---	0.00	29.991 
04:55	56.7	56.7	56.7	92	54.4	0	0	---	0.00	29.991 
05:00	56.7	56.7	56.7	92	54.4	0	0	---	0.00	29.997 
05:05	56.6	56.6	56.6	92	54.3	0	0	---	0.00	29.997 
05:10	56.6	56.6	56.6	92	54.3	0	0	---	0.00	29.997 
05:15	56.6	56.6	56.6	92	54.3	0	0	---	0.00	30.002 
05:20	56.6	56.6	56.6	92	54.3	0	0	---	0.00	30.002 
05:25	56.5	56.5	56.5	92	54.2	0	0	---	0.00	30.002 
05:30	56.5	56.5	56.5	92	54.2	0	0	---	0.00	30.005 
05:35	56.3	56.3	56.3	92	54.0	0	0	---	0.00	30.005 
05:40	56.3	56.3	56.3	93	54.3	0	0	---	0.00	30.005 
05:45	56.3	56.3	56.3	93	54.3	0	0	---	0.00	30.010 
05:50	56.3	56.3	56.3	93	54.3	0	0	---	0.00	30.010 
05:55	56.3	56.3	56.3	93	54.3	0	0	---	0.00	30.010 
06:00	56.2	56.2	56.2	93	54.2	0	0	---	0.00	30.019 
06:05	56.2	56.2	56.2	93	54.2	0	0	---	0.00	30.019 
06:10	56.0	56.0	56.0	93	54.0	0	0	---	0.00	30.019 
06:15	56.0	56.0	56.0	93	54.0	0	0	---	0.00	30.027 
06:20	56.0	56.0	56.0	93	54.0	0	0	---	0.00	30.027 
06:25	56.0	56.0	56.0	93	54.0	0	0	---	0.00	30.027 
06:30	56.0	56.0	56.0	93	54.0	0	0	---	0.00	30.038 
06:35	56.0	56.0	56.0	93	54.0	0	0	---	0.00	30.038 
06:40	56.0	56.0	56.0	94	54.3	0	0	---	0.00	30.038 
06:45	56.2	56.2	56.2	94	54.5	0	0	---	0.00	30.049 
06:50	56.3	56.3	56.3	94	54.6	0	0	---	0.00	30.049 
06:55	56.6	56.6	56.6	94	54.9	0	0	---	0.00	30.049 
07:00	56.9	56.9	56.9	94	55.2	0	0	---	0.00	30.053 
07:05	57.3	57.3	57.3	94	55.6	0	0	---	0.00	30.053 
07:10	57.8	57.8	57.8	94	56.1	0	0	---	0.00	30.053 
07:15	58.4	58.4	58.4	94	56.7	0	0	---	0.00	30.057 
07:20	59.2	59.2	59.2	94	57.5	0	0	---	0.00	30.057 
07:25	59.9	59.9	59.9	93	57.9	0	0	---	0.00	30.057 
07:30	60.9	60.9	60.9	92	58.6	0	0	---	0.00	30.056 
07:35	61.5	61.5	61.5	89	58.2	0	1	270	0.00	30.056 
07:40	62.3	62.3	62.3	85	57.7	0	1	270	0.00	30.056 
07:45	63.1	63.1	63.1	83	57.8	0	1	270	0.00	30.063 
07:50	63.7	63.7	63.7	79	57.1	0	2	270	0.00	30.063 
07:55	64.3	64.3	64.3	77	56.9	0	3	270	0.00	30.063 
08:00	65.2	65.2	65.2	76	57.4	0	1	270	0.00	30.064 
08:05	65.5	65.5	65.5	74	57.0	0	2	270	0.00	30.064 
08:10	66.0	66.0	66.0	74	57.5	0	1	270	0.00	30.064 
08:15	66.4	66.4	66.4	72	57.1	0	1	270	0.00	30.064 
08:20	66.8	66.8	66.8	71	57.1	0	1	270	0.00	30.064 
08:25	67.3	67.3	67.3	70	57.2	0	3	270	0.00	30.064 
08:30	67.8	67.8	67.8	69	57.2	0	2	202	0.00	30.062 
08:35	68.1	68.1	68.1	67	56.7	1	2	202	0.00	30.062 
08:40	68.6	68.6	68.6	66	56.8	0	3	158	0.00	30.062 
08:45	69.3	69.3	69.3	65	57.0	1	3	158	0.00	30.064 
08:50	69.9	69.9	69.9	62	56.3	1	3	112	0.00	30.064 
08:55	70.4	70.4	70.4	62	56.7	2	4	112	0.00	30.064 
09:00	70.8	70.8	70.8	62	57.1	0	2	112	0.00	30.067 
09:05	71.6	71.6	71.6	61	57.4	0	2	112	0.00	30.067 
09:10	72.7	72.7	72.7	58	57.1	1	3	112	0.00	30.067 
09:15	73.3	73.3	73.3	56	56.6	1	4	112	0.00	30.069 
09:20	73.9	73.9	73.9	57	57.7	0	1	112	0.00	30.069 
09:25	74.6	74.6	74.6	54	56.8	1	3	112	0.00	30.069 
09:30	75.1	75.1	77.7	51	55.7	1	3	112	0.00	30.073 
09:35	75.6	75.6	77.9	54	57.8	1	3	112	0.00	30.073 
09:40	75.8	75.8	78.0	53	57.4	1	4	90	0.00	30.073 
09:45	76.3	76.3	78.2	49	55.7	1	3	112	0.00	30.078 
09:50	76.7	76.7	78.4	49	56.1	1	2	112	0.00	30.078 
09:55	77.2	77.2	78.7	50	57.1	0	4	90	0.00	30.078 
10:00	77.6	77.6	78.9	49	56.9	1	3	112	0.00	30.077 
10:05	77.6	77.6	78.8	47	55.8	1	3	112	0.00	30.077 
10:10	77.2	77.2	78.7	50	57.1	1	2	112	0.00	30.077 
10:15	74.7	74.7	74.7	58	58.9	1	4	68	0.00	30.081 
10:20	72.3	72.3	72.3	62	58.5	1	4	68	0.00	30.081 
10:25	70.6	70.6	70.6	65	58.2	1	4	68	0.00	30.081 
10:30	70.3	70.3	70.3	66	58.4	1	3	90	0.00	30.084 
10:35	69.3	69.3	69.3	73	60.3	0	2	90	0.00	30.084 
10:40	69.1	69.1	69.1	63	56.0	2	4	90	0.00	30.084 
10:45	69.6	69.6	69.6	61	55.5	1	3	90	0.00	30.084 
10:50	69.8	69.8	69.8	71	60.0	0	1	90	0.00	30.084 
10:55	69.1	69.1	69.1	70	58.9	1	4	90	0.00	30.084 
11:00	69.1	69.1	69.1	70	58.9	1	4	90	0.00	30.085 
11:05	69.6	69.6	69.6	72	60.2	0	1	90	0.00	30.085 
11:10	70.1	70.1	70.1	60	55.6	1	2	90	0.00	30.085 
11:15	70.9	70.9	70.9	57	54.9	1	2	90	0.00	30.085 
11:20	72.1	72.1	72.1	60	57.4	0	2	90	0.00	30.085 
11:25	72.8	72.8	72.8	62	59.0	1	2	90	0.00	30.085 
11:30	73.2	73.2	73.2	54	55.5	1	3	90	0.00	30.079 
11:35	73.9	73.9	73.9	54	56.2	0	2	90	0.00	30.079 
11:40	74.6	74.6	74.6	56	57.8	0	2	90	0.00	30.079 
11:45	75.6	75.6	77.8	56	58.8	0	3	90	0.00	30.078 
11:50	76.3	76.3	78.3	54	58.4	0	2	90	0.00	30.078 
11:55	77.0	77.0	78.6	50	56.9	0	2	90	0.00	30.078 
12:00	77.0	77.0	78.4	45	54.0	1	5	90	0.00	30.075 
12:05	78.1	78.1	78.9	42	53.1	1	3	90	0.00	30.075 
12:10	79.9	79.9	79.7	38	52.0	2	4	112	0.00	30.075 
12:15	81.1	81.1	80.7	40	54.5	1	4	112	0.00	30.068 
12:20	81.8	81.8	80.7	34	50.7	2	5	90	0.00	30.068 
12:25	82.4	82.4	81.0	33	50.4	1	4	112	0.00	30.068 
12:30	83.0	83.0	81.4	32	50.1	1	3	90	0.00	30.064 
12:35	83.6	83.6	82.0	33	51.4	1	4	90	0.00	30.064 
12:40	83.8	83.8	82.3	34	52.4	1	3	90	0.00	30.064 
12:45	84.0	84.0	82.1	31	50.1	1	3	112	0.00	30.056 
12:50	84.1	84.1	82.2	31	50.2	2	5	90	0.00	30.056 
12:55	84.3	84.3	82.3	30	49.5	0	2	90	0.00	30.056 
13:00	84.7	84.7	82.7	31	50.7	1	3	90	0.00	30.053 
13:05	84.7	84.7	82.3	27	47.0	2	6	90	0.00	30.053 
13:10	84.7	84.7	82.0	24	43.9	1	4	112	0.00	30.053 
13:15	84.9	84.9	82.3	25	45.1	1	4	112	0.00	30.052 
13:20	85.1	85.1	82.4	25	45.3	2	4	90	0.00	30.052 
13:25	85.1	85.1	82.5	26	46.3	1	4	90	0.00	30.052 
13:30	84.9	84.9	82.4	26	46.2	2	4	90	0.00	30.050 
13:35	84.9	84.9	82.4	26	46.2	1	4	90	0.00	30.050 
13:40	85.1	85.1	82.7	28	48.3	1	4	112	0.00	30.050 
13:45	85.1	85.1	82.7	28	48.3	2	4	90	0.00	30.046 
13:50	85.7	85.7	83.1	27	47.8	0	2	112	0.00	30.046 
13:55	85.7	85.7	83.2	28	48.8	2	5	90	0.00	30.046 
14:00	85.7	85.7	83.5	30	50.7	1	2	68	0.00	30.043 
14:05	85.9	85.9	83.4	28	49.0	2	6	90	0.00	30.043 
14:10	86.3	86.3	83.5	25	46.3	0	1	90	0.00	30.043 
14:15	86.7	86.7	83.9	26	47.7	1	7	112	0.00	30.041 
14:20	87.0	87.0	84.4	28	49.9	1	7	112	0.00	30.041 
14:25	86.7	86.7	83.9	26	47.7	1	3	112	0.00	30.041 
14:30	87.0	87.0	84.1	25	46.9	0	2	135	0.00	30.036 
14:35	87.0	87.0	84.2	26	47.9	1	2	135	0.00	30.036 
14:40	86.7	86.7	84.1	28	49.7	2	4	90	0.00	30.036 
14:45	86.5	86.5	84.0	28	49.5	2	3	112	0.00	30.030 
14:50	86.5	86.5	83.8	27	48.5	2	5	90	0.00	30.030 
14:55	86.5	86.5	84.2	30	51.3	1	3	90	0.00	30.030 
15:00	86.7	86.7	84.0	27	48.7	1	6	90	0.00	30.027 
15:05	86.7	86.7	83.8	25	46.6	2	5	90	0.00	30.027 
15:10	86.5	86.5	83.8	27	48.5	1	3	90	0.00	30.027 
15:15	86.7	86.7	84.0	27	48.7	1	3	90	0.00	30.027 
15:20	86.7	86.7	84.0	27	48.7	1	2	90	0.00	30.027 
15:25	87.0	87.0	84.3	27	48.9	1	4	90	0.00	30.027 
15:30	87.0	87.0	84.2	26	47.9	1	4	90	0.00	30.021 
15:35	87.4	87.4	84.4	25	47.2	1	4	90	0.00	30.021 
15:40	87.4	87.4	84.6	26	48.3	1	4	135	0.00	30.021 
15:45	87.2	87.2	84.5	27	49.1	1	3	135	0.00	30.018 
15:50	87.4	87.4	84.4	25	47.2	1	3	135	0.00	30.018 
15:55	87.2	87.2	84.3	25	47.1	2	4	112	0.00	30.018 
16:00	87.0	87.0	84.2	26	47.9	0	2	112	0.00	30.016 
16:05	87.0	87.0	84.1	25	46.9	0	1	112	0.00	30.016 
16:10	87.2	87.2	84.4	26	48.1	0	1	112	0.00	30.016 
16:15	87.4	87.4	84.7	27	49.3	0	2	112	0.00	30.016 
16:20	87.4	87.4	84.7	27	49.3	0	4	112	0.00	30.016 
16:25	87.4	87.4	84.7	27	49.3	1	4	112	0.00	30.016 
16:30	87.2	87.2	84.4	26	48.1	0	3	90	0.00	30.017 
16:35	86.7	86.7	83.9	26	47.7	1	3	90	0.00	30.017 
16:40	86.3	86.3	83.7	27	48.3	1	2	112	0.00	30.017 
16:45	86.1	86.1	83.5	27	48.2	1	4	112	0.00	30.018 
16:50	85.9	85.9	83.2	26	47.0	1	3	90	0.00	30.018 
16:55	85.9	85.9	83.3	27	48.0	1	4	90	0.00	30.018 
17:00	85.7	85.7	83.2	28	48.8	0	2	90	0.00	30.017 
17:05	85.5	85.5	83.0	27	47.7	1	2	90	0.00	30.017 
17:10	85.3	85.3	82.8	27	47.5	1	3	90	0.00	30.017 
17:15	85.1	85.1	82.6	27	47.3	1	4	90	0.00	30.019 
17:20	84.9	84.9	82.5	27	47.2	1	3	90	0.00	30.019 
17:25	84.7	84.7	82.3	27	47.0	0	1	90	0.00	30.019 
17:30	84.7	84.7	82.3	27	47.0	0	1	90	0.00	30.022 
17:35	84.5	84.5	82.2	28	47.8	0	2	112	0.00	30.022 
17:40	84.5	84.5	82.1	27	46.8	0	2	112	0.00	30.022 
17:45	84.3	84.3	82.1	28	47.6	0	2	112	0.00	30.021 
17:50	84.1	84.1	82.0	29	48.4	0	2	112	0.00	30.021 
17:55	84.0	84.0	82.0	30	49.2	0	1	112	0.00	30.021 
18:00	83.8	83.8	81.8	30	49.0	0	1	112	0.00	30.023 
18:05	83.6	83.6	81.7	30	48.9	0	2	112	0.00	30.023 
18:10	83.4	83.4	81.5	30	48.7	0	2	112	0.00	30.023 
18:15	83.4	83.4	81.6	31	49.6	0	2	112	0.00	30.030 
18:20	83.2	83.2	81.5	31	49.4	0	1	112	0.00	30.030 
18:25	83.0	83.0	81.4	32	50.1	0	1	112	0.00	30.030 
18:30	82.8	82.8	81.2	32	49.9	0	1	112	0.00	30.032 
18:35	82.6	82.6	81.2	33	50.6	0	1	112	0.00	30.032 
18:40	82.2	82.2	81.1	35	51.8	0	0	---	0.00	30.032 
18:45	81.8	81.8	80.8	35	51.4	0	0	---	0.00	30.034 
18:50	81.4	81.4	80.7	37	52.6	0	0	---	0.00	30.034 
18:55	80.9	80.9	80.4	38	52.9	0	0	---	0.00	30.034 
19:00	80.3	80.3	80.0	38	52.4	0	0	---	0.00	30.033 
19:05	79.8	79.8	79.7	39	52.6	0	0	---	0.00	30.033 
19:10	79.2	79.2	79.3	39	52.1	0	0	---	0.00	30.033 
19:15	78.6	78.6	79.1	41	52.9	0	0	---	0.00	30.031 
19:20	78.1	78.1	78.9	42	53.1	0	0	---	0.00	30.031 
19:25	77.4	77.4	78.6	43	53.1	0	0	---	0.00	30.031 
19:30	76.7	76.7	78.3	44	53.1	0	0	---	0.00	30.033 
19:35	76.0	76.0	78.0	45	53.1	0	0	---	0.00	30.033 
19:40	75.3	75.3	77.7	47	53.7	0	0	---	0.00	30.033 
19:45	74.7	74.7	74.7	48	53.7	0	0	---	0.00	30.036 
19:50	74.0	74.0	74.0	50	54.2	0	0	---	0.00	30.036 
19:55	73.5	73.5	73.5	52	54.8	0	0	---	0.00	30.036 
20:00	72.8	72.8	72.8	53	54.7	0	0	---	0.00	30.039 
20:05	72.5	72.5	72.5	55	55.4	0	0	---	0.00	30.039 
20:10	72.0	72.0	72.0	56	55.4	0	0	---	0.00	30.039 
20:15	71.6	71.6	71.6	57	55.5	0	0	---	0.00	30.040 
20:20	71.1	71.1	71.1	58	55.6	0	0	---	0.00	30.040 
20:25	70.8	70.8	70.8	59	55.7	0	0	---	0.00	30.040 
20:30	70.3	70.3	70.3	60	55.7	0	0	---	0.00	30.047 
20:35	69.9	69.9	69.9	61	55.8	0	0	---	0.00	30.047 
20:40	69.6	69.6	69.6	61	55.5	0	1	112	0.00	30.047 
20:45	69.6	69.6	69.6	58	54.2	0	0	---	0.00	30.052 
20:50	69.6	69.6	69.6	57	53.7	0	0	---	0.00	30.052 
20:55	69.6	69.6	69.6	58	54.2	0	0	---	0.00	30.052 
21:00	69.4	69.4	69.4	58	54.0	0	0	---	0.00	30.056 
21:05	69.3	69.3	69.3	58	53.9	0	0	---	0.00	30.056 
21:10	68.9	68.9	68.9	59	54.0	0	0	---	0.00	30.056 
21:15	68.8	68.8	68.8	60	54.3	0	0	---	0.00	30.056 
21:20	68.4	68.4	68.4	61	54.4	0	0	---	0.00	30.056 
21:25	68.3	68.3	68.3	61	54.3	0	0	---	0.00	30.056 
21:30	67.9	67.9	67.9	62	54.4	0	0	---	0.00	30.058 
21:35	67.6	67.6	67.6	62	54.1	0	0	---	0.00	30.058 
21:40	67.3	67.3	67.3	64	54.7	0	0	---	0.00	30.058 
21:45	67.1	67.1	67.1	65	54.9	0	0	---	0.00	30.059 
21:50	66.8	66.8	66.8	65	54.6	0	0	---	0.00	30.059 
21:55	66.6	66.6	66.6	66	54.9	0	0	---	0.00	30.059 
22:00	66.3	66.3	66.3	66	54.6	0	0	---	0.00	30.059 
22:05	66.1	66.1	66.1	66	54.4	0	0	---	0.00	30.059 
22:10	65.8	65.8	65.8	66	54.1	0	0	---	0.00	30.059 
22:15	65.6	65.6	65.6	65	53.5	0	0	---	0.00	30.066 
22:20	65.3	65.3	65.3	65	53.2	0	0	---	0.00	30.066 
22:25	65.2	65.2	65.2	66	53.5	0	0	---	0.00	30.066 
22:30	65.0	65.0	65.0	65	52.9	0	0	---	0.00	30.069 
22:35	64.8	64.8	64.8	66	53.2	0	0	---	0.00	30.069 
22:40	64.7	64.7	64.7	66	53.1	0	0	---	0.00	30.069 
22:45	64.5	64.5	64.5	65	52.5	0	0	---	0.00	30.069 
22:50	64.7	64.7	64.7	68	53.9	0	0	---	0.00	30.069 
22:55	64.5	64.5	64.5	66	52.9	0	0	---	0.00	30.069 
23:00	64.5	64.5	64.5	65	52.5	0	0	---	0.00	30.069 
23:05	64.5	64.5	64.5	66	52.9	0	0	---	0.00	30.069 
23:10	64.5	64.5	64.5	64	52.0	0	0	---	0.00	30.069 
23:15	64.7	64.7	64.7	63	51.8	0	0	---	0.00	30.064 
23:20	64.8	64.8	64.8	62	51.5	0	0	---	0.00	30.064 
23:25	65.2	65.2	65.2	62	51.8	0	0	---	0.00	30.064 
23:30	65.3	65.3	65.3	61	51.5	0	0	---	0.00	30.068 
23:35	65.5	65.5	65.5	61	51.7	0	0	---	0.00	30.068 
23:40	65.5	65.5	65.5	61	51.7	0	0	---	0.00	30.068 
23:45	65.5	65.5	65.5	62	52.1	0	0	---	0.00	30.071 
23:50	65.3	65.3	65.3	62	51.9	0	0	---	0.00	30.071 
23:55	65.2	65.2	65.2	63	52.3	0	0	---	0.00	30.071 

CoCoRaHS
IN-AL-39
A2 Web Hosting
Creative Commons License
GoDaddy
Look for:

loaded 2017-12-11 14:27:40 • last modified 2010-11-18 10:43:29
Privacy PolicyDisclaimer
• wx.awcolley.com is powered by PmWiki v.2002016 •
• all content (unless otherwise noted) © 2017 A W Colley